createdAt,value
2017-08-12T00:01:47.598Z,17.16
2017-08-12T00:04:15.503Z,17.04
2017-08-12T00:06:44.163Z,17.00
2017-08-12T00:09:12.142Z,17.06
2017-08-12T00:11:40.034Z,17.01
2017-08-12T00:14:08.348Z,16.91
2017-08-12T00:16:36.246Z,16.88
2017-08-12T00:19:04.332Z,16.78
2017-08-12T00:21:32.240Z,16.68
2017-08-12T00:24:00.130Z,16.65
2017-08-12T00:26:28.053Z,16.62
2017-08-12T00:28:56.344Z,16.51
2017-08-12T00:31:24.656Z,16.49
2017-08-12T00:33:52.568Z,16.52
2017-08-12T00:36:20.470Z,16.61
2017-08-12T00:38:48.366Z,16.69
2017-08-12T00:41:16.288Z,16.64
2017-08-12T00:43:44.586Z,16.67
2017-08-12T00:46:12.709Z,16.77
2017-08-12T00:48:40.615Z,16.88
2017-08-12T00:51:08.912Z,16.86
2017-08-12T00:53:36.818Z,16.86
2017-08-12T00:56:04.757Z,16.84
2017-08-12T00:58:32.657Z,16.71
2017-08-12T01:01:01.563Z,16.55
2017-08-12T01:03:29.470Z,16.55
2017-08-12T01:05:57.623Z,16.52
2017-08-12T01:08:25.531Z,16.47
2017-08-12T01:10:53.436Z,16.37
2017-08-12T01:13:21.606Z,16.40
2017-08-12T01:15:49.508Z,16.39
2017-08-12T01:18:17.960Z,16.41
2017-08-12T01:20:45.880Z,16.41
2017-08-12T01:23:13.779Z,16.33
2017-08-12T01:25:41.685Z,16.46
2017-08-12T01:28:09.997Z,16.35
2017-08-12T01:30:37.895Z,16.29
2017-08-12T01:33:05.808Z,16.22
2017-08-12T01:35:34.407Z,16.16
2017-08-12T01:38:02.298Z,16.09
2017-08-12T01:40:30.216Z,16.05
2017-08-12T01:42:58.111Z,16.09
2017-08-12T01:45:26.148Z,15.89
2017-08-12T01:47:54.051Z,15.84
2017-08-12T01:50:21.946Z,15.79
2017-08-12T01:52:49.864Z,15.75
2017-08-12T01:55:17.763Z,15.81
2017-08-12T01:57:45.675Z,15.78
2017-08-12T02:00:13.575Z,15.81
2017-08-12T02:02:41.877Z,15.74
2017-08-12T02:05:09.779Z,15.88
2017-08-12T02:07:37.696Z,15.95
2017-08-12T02:10:06.000Z,15.91
2017-08-12T02:12:33.911Z,15.93
2017-08-12T02:15:01.840Z,15.84
2017-08-12T02:17:29.969Z,15.76
2017-08-12T02:19:57.933Z,15.86
2017-08-12T02:22:25.829Z,15.78
2017-08-12T02:24:54.181Z,15.83
2017-08-12T02:27:22.390Z,15.77
2017-08-12T02:29:50.378Z,15.74
2017-08-12T02:32:18.290Z,15.69
2017-08-12T02:34:46.190Z,15.65
2017-08-12T02:37:14.500Z,15.68
2017-08-12T02:39:42.417Z,15.67
2017-08-12T02:42:10.316Z,15.65
2017-08-12T02:44:38.240Z,15.64
2017-08-12T02:47:06.140Z,15.61
2017-08-12T02:49:34.801Z,15.70
2017-08-12T02:52:02.702Z,15.67
2017-08-12T02:54:30.602Z,15.62
2017-08-12T02:56:58.520Z,15.70
2017-08-12T02:59:26.424Z,15.66
2017-08-12T03:01:54.334Z,15.65
2017-08-12T03:04:22.230Z,15.75
2017-08-12T03:06:50.539Z,15.58
2017-08-12T03:09:18.444Z,15.56
2017-08-12T03:11:46.347Z,15.50
2017-08-12T03:14:14.942Z,15.43
2017-08-12T03:16:42.965Z,15.49
2017-08-12T03:19:10.879Z,15.58
2017-08-12T03:21:39.174Z,15.58
2017-08-12T03:24:07.094Z,15.53
2017-08-12T03:26:35.000Z,15.52
2017-08-12T03:29:03.303Z,15.53
2017-08-12T03:31:31.208Z,15.56
2017-08-12T03:33:59.115Z,15.57
2017-08-12T03:36:27.010Z,15.51
2017-08-12T03:38:55.111Z,15.45
2017-08-12T03:41:23.002Z,15.46
2017-08-12T03:43:51.311Z,15.42
2017-08-12T03:46:19.223Z,15.38
2017-08-12T03:48:47.118Z,15.42
2017-08-12T03:51:15.432Z,15.36
2017-08-12T03:53:43.340Z,15.31
2017-08-12T03:56:11.238Z,15.31
2017-08-12T03:58:39.552Z,15.31
2017-08-12T04:01:07.483Z,15.33
2017-08-12T04:03:35.775Z,15.27
2017-08-12T04:06:04.092Z,15.20
2017-08-12T04:08:31.996Z,15.25
2017-08-12T04:11:00.159Z,15.20
2017-08-12T04:13:28.054Z,15.20
2017-08-12T04:15:56.361Z,15.17
2017-08-12T04:18:24.277Z,15.15
2017-08-12T04:20:52.170Z,15.06
2017-08-12T04:23:20.493Z,15.03
2017-08-12T04:25:48.391Z,14.98
2017-08-12T04:28:16.299Z,15.03
2017-08-12T04:30:44.199Z,15.06
2017-08-12T04:33:12.444Z,14.96
2017-08-12T04:35:40.343Z,14.98
2017-08-12T04:38:08.265Z,15.02
2017-08-12T04:40:36.558Z,14.97
2017-08-12T04:43:04.454Z,14.90
2017-08-12T04:45:32.366Z,14.84
2017-08-12T04:48:00.272Z,14.91
2017-08-12T04:50:28.183Z,14.84
2017-08-12T04:52:56.081Z,14.84
2017-08-12T04:55:24.401Z,14.96
2017-08-12T04:57:52.316Z,14.93
2017-08-12T05:00:20.735Z,15.01
2017-08-12T05:02:48.639Z,14.98
2017-08-12T05:05:16.550Z,14.97
2017-08-12T05:07:44.857Z,15.02
2017-08-12T05:10:12.779Z,14.98
2017-08-12T05:12:40.697Z,14.89
2017-08-12T05:15:08.595Z,14.93
2017-08-12T05:17:36.521Z,14.95
2017-08-12T05:20:04.437Z,14.96
2017-08-12T05:22:32.360Z,14.87
2017-08-12T05:25:00.259Z,14.89
2017-08-12T05:27:28.490Z,14.96
2017-08-12T05:29:56.791Z,15.02
2017-08-12T05:32:24.700Z,14.99
2017-08-12T05:34:52.616Z,15.03
2017-08-12T05:37:20.907Z,15.11
2017-08-12T05:39:48.810Z,15.15
2017-08-12T05:42:16.716Z,15.21
2017-08-12T05:44:45.025Z,15.16
2017-08-12T05:47:12.932Z,15.07
2017-08-12T05:49:40.838Z,15.02
2017-08-12T05:52:09.533Z,15.07
2017-08-12T05:54:37.564Z,15.14
2017-08-12T05:57:05.468Z,15.15
2017-08-12T05:59:33.773Z,15.10
2017-08-12T06:02:01.688Z,15.17
2017-08-12T06:04:29.595Z,15.23
2017-08-12T06:06:57.503Z,15.20
2017-08-12T06:09:25.403Z,15.15
2017-08-12T06:11:53.459Z,15.19
2017-08-12T06:14:21.361Z,15.27
2017-08-12T06:16:49.655Z,15.46
2017-08-12T06:19:17.573Z,15.58
2017-08-12T06:21:45.494Z,15.67
2017-08-12T06:24:13.394Z,15.57
2017-08-12T06:26:41.309Z,15.51
2017-08-12T06:29:09.612Z,15.54
2017-08-12T06:31:37.503Z,15.43
2017-08-12T06:34:05.585Z,15.33
2017-08-12T06:36:33.495Z,15.39
2017-08-12T06:39:01.800Z,15.43
2017-08-12T06:41:29.698Z,15.38
2017-08-12T06:43:57.608Z,15.37
2017-08-12T06:46:25.911Z,15.27
2017-08-12T06:48:53.811Z,15.23
2017-08-12T06:51:21.719Z,15.13
2017-08-12T06:53:50.014Z,15.14
2017-08-12T06:56:17.918Z,15.06
2017-08-12T06:58:45.828Z,15.01
2017-08-12T07:01:13.744Z,15.00
2017-08-12T07:03:41.653Z,15.04
2017-08-12T07:06:09.576Z,15.06
2017-08-12T07:08:37.841Z,15.16
2017-08-12T07:11:06.211Z,15.03
2017-08-12T07:13:34.120Z,15.12
2017-08-12T07:16:02.257Z,15.16
2017-08-12T07:18:30.158Z,15.16
2017-08-12T07:20:58.111Z,15.04
2017-08-12T07:23:26.019Z,15.07
2017-08-12T07:25:53.915Z,15.08
2017-08-12T07:28:22.618Z,15.09
2017-08-12T07:30:50.514Z,15.06
2017-08-12T07:33:18.606Z,14.93
2017-08-12T07:35:46.507Z,14.98
2017-08-12T07:38:14.817Z,14.86
2017-08-12T07:40:42.793Z,14.97
2017-08-12T07:43:10.683Z,14.94
2017-08-12T07:45:38.604Z,14.98
2017-08-12T07:48:06.898Z,15.02
2017-08-12T07:50:34.802Z,15.07
2017-08-12T07:53:02.711Z,15.13
2017-08-12T07:55:31.028Z,15.17
2017-08-12T07:57:58.937Z,15.16
2017-08-12T08:00:26.843Z,15.08
2017-08-12T08:02:54.759Z,15.05
2017-08-12T08:05:22.658Z,15.09
2017-08-12T08:07:50.965Z,15.07
2017-08-12T08:10:19.336Z,15.07
2017-08-12T08:12:47.249Z,14.98
2017-08-12T08:15:15.155Z,14.98
2017-08-12T08:17:43.469Z,15.02
2017-08-12T08:20:11.379Z,14.93
2017-08-12T08:22:39.285Z,14.92
2017-08-12T08:25:07.574Z,14.98
2017-08-12T08:27:35.482Z,15.12
2017-08-12T08:30:04.126Z,15.05
2017-08-12T08:32:32.039Z,15.14
2017-08-12T08:34:59.948Z,15.28
2017-08-12T08:37:28.403Z,15.28
2017-08-12T08:39:56.310Z,15.28
2017-08-12T08:42:24.220Z,15.20
2017-08-12T08:44:52.135Z,15.14
2017-08-12T08:47:20.436Z,15.14
2017-08-12T08:49:48.356Z,15.13
2017-08-12T08:52:16.259Z,15.14
2017-08-12T08:54:44.386Z,15.05
2017-08-12T08:57:12.282Z,15.05
2017-08-12T08:59:40.600Z,15.13
2017-08-12T09:02:08.512Z,15.22
2017-08-12T09:04:36.424Z,15.12
2017-08-12T09:07:04.353Z,15.28
2017-08-12T09:09:32.260Z,15.34
2017-08-12T09:12:00.171Z,15.49
2017-08-12T09:14:28.080Z,15.82
2017-08-12T09:16:56.383Z,16.04
2017-08-12T09:19:24.291Z,16.01
2017-08-12T09:21:52.555Z,16.09
2017-08-12T09:24:20.469Z,16.16
2017-08-12T09:26:49.335Z,16.33
2017-08-12T09:29:17.308Z,16.52
2017-08-12T09:31:45.205Z,16.43
2017-08-12T09:34:13.512Z,16.53
2017-08-12T09:36:41.410Z,16.67
2017-08-12T09:39:09.317Z,16.76
2017-08-12T09:41:37.641Z,16.93
2017-08-12T09:44:05.866Z,16.96
2017-08-12T09:46:34.228Z,16.84
2017-08-12T09:49:03.926Z,16.76
2017-08-12T09:51:31.858Z,16.67
2017-08-12T09:53:59.768Z,16.53
2017-08-12T09:56:27.683Z,16.56
2017-08-12T09:58:55.598Z,16.54
2017-08-12T10:01:23.512Z,16.51
2017-08-12T10:03:51.427Z,16.67
2017-08-12T10:06:19.664Z,16.51
2017-08-12T10:08:47.604Z,16.76
2017-08-12T10:11:17.705Z,17.06
2017-08-12T10:13:46.091Z,17.45
2017-08-12T10:16:15.370Z,17.89
2017-08-12T10:18:45.020Z,18.41
2017-08-12T10:21:14.904Z,18.67
2017-08-12T10:23:44.607Z,18.86
2017-08-12T10:26:14.109Z,19.00
2017-08-12T10:28:43.019Z,18.95
2017-08-12T10:31:12.192Z,19.31
2017-08-12T10:33:41.919Z,19.31
2017-08-12T10:36:15.127Z,19.51
2017-08-12T10:38:43.812Z,19.63
2017-08-12T10:41:12.959Z,19.52
2017-08-12T10:43:41.432Z,19.66
2017-08-12T10:46:11.674Z,19.67
2017-08-12T10:48:42.016Z,19.67
2017-08-12T10:51:13.320Z,19.82
2017-08-12T10:53:42.131Z,19.99
2017-08-12T10:56:12.239Z,20.22
2017-08-12T10:58:41.932Z,20.33
2017-08-12T11:01:13.042Z,20.43
2017-08-12T11:03:44.462Z,20.39
2017-08-12T11:06:15.100Z,20.27
2017-08-12T11:08:44.332Z,20.39
2017-08-12T11:11:18.781Z,20.38
2017-08-12T11:13:47.434Z,20.50
2017-08-12T11:16:16.909Z,20.51
2017-08-12T11:18:46.069Z,20.29
2017-08-12T11:21:16.057Z,19.99
2017-08-12T11:23:45.669Z,20.00
2017-08-12T11:26:15.039Z,20.20
2017-08-12T11:28:45.069Z,20.30
2017-08-12T11:31:15.938Z,20.31
2017-08-12T11:33:44.938Z,19.75
2017-08-12T11:36:13.270Z,19.52
2017-08-12T11:38:41.178Z,19.54
2017-08-12T11:41:10.940Z,19.71
2017-08-12T11:43:40.974Z,19.84
2017-08-12T11:46:16.465Z,19.91
2017-08-12T11:48:44.796Z,19.90
2017-08-12T11:51:13.130Z,20.13
2017-08-12T11:53:41.437Z,20.15
2017-08-12T11:56:10.726Z,20.32
2017-08-12T11:58:39.436Z,20.52
2017-08-12T12:01:09.460Z,20.59
2017-08-12T12:03:40.679Z,20.68
2017-08-12T12:06:09.886Z,21.19
2017-08-12T12:08:40.296Z,21.48
2017-08-12T12:11:08.997Z,21.32
2017-08-12T12:13:39.637Z,21.71
2017-08-12T12:16:07.853Z,21.49
2017-08-12T12:18:39.800Z,21.50
2017-08-12T12:21:12.864Z,21.52
2017-08-12T12:23:43.430Z,21.54
2017-08-12T12:26:13.821Z,21.69
2017-08-12T12:28:43.845Z,21.56
2017-08-12T12:31:13.403Z,21.62
2017-08-12T12:33:43.148Z,21.40
2017-08-12T12:36:16.031Z,21.17
2017-08-12T12:38:45.844Z,21.12
2017-08-12T12:41:16.166Z,21.42
2017-08-12T12:43:44.940Z,21.72
2017-08-12T12:46:15.585Z,22.13
2017-08-12T12:48:45.283Z,22.44
2017-08-12T12:51:17.831Z,22.65
2017-08-12T12:53:47.130Z,22.17
2017-08-12T12:56:16.725Z,21.96
2017-08-12T12:58:45.598Z,21.84
2017-08-12T13:01:15.343Z,21.39
2017-08-12T13:03:44.742Z,21.41
2017-08-12T13:06:15.657Z,20.91
2017-08-12T13:08:46.352Z,20.56
2017-08-12T13:11:17.280Z,20.41
2017-08-12T13:13:47.486Z,20.21
2017-08-12T13:16:17.577Z,19.94
2017-08-12T13:18:46.971Z,20.05
2017-08-12T13:21:18.943Z,20.12
2017-08-12T13:23:47.863Z,20.08
2017-08-12T13:26:17.433Z,19.90
2017-08-12T13:28:46.187Z,19.79
2017-08-12T13:31:17.053Z,19.71
2017-08-12T13:33:47.618Z,19.75
2017-08-12T13:36:15.597Z,19.77
2017-08-12T13:38:44.486Z,19.93
2017-08-12T13:41:14.602Z,19.97
2017-08-12T13:43:45.131Z,20.25
2017-08-12T13:46:13.369Z,20.53
2017-08-12T13:48:45.283Z,20.73
2017-08-12T13:51:13.227Z,20.82
2017-08-12T13:53:41.576Z,20.68
2017-08-12T13:56:09.971Z,20.71
2017-08-12T13:58:45.884Z,20.47
2017-08-12T14:01:14.496Z,20.44
2017-08-12T14:03:43.821Z,20.24
2017-08-12T14:06:11.967Z,20.35
2017-08-12T14:08:40.367Z,20.41
2017-08-12T14:11:10.728Z,20.82
2017-08-12T14:13:40.150Z,21.21
2017-08-12T14:16:08.867Z,21.24
2017-08-12T14:18:37.045Z,21.28
2017-08-12T14:21:05.880Z,21.48
2017-08-12T14:23:34.040Z,21.24
2017-08-12T14:26:02.942Z,20.85
2017-08-12T14:28:30.930Z,20.84
2017-08-12T14:30:59.569Z,20.84
2017-08-12T14:33:27.551Z,20.95
2017-08-12T14:35:57.924Z,20.93
2017-08-12T14:38:26.273Z,20.92
2017-08-12T14:40:55.225Z,20.87
2017-08-12T14:43:23.480Z,20.90
2017-08-12T14:45:52.218Z,20.95
2017-08-12T14:48:20.206Z,20.99
2017-08-12T14:50:48.450Z,20.77
2017-08-12T14:53:16.373Z,20.97
2017-08-12T14:55:45.580Z,21.01
2017-08-12T14:58:15.948Z,20.98
2017-08-12T15:00:45.458Z,20.95
2017-08-12T15:03:13.392Z,20.71
2017-08-12T15:05:42.093Z,20.73
2017-08-12T15:08:10.745Z,20.87
2017-08-12T15:10:39.105Z,21.09
2017-08-12T15:13:08.605Z,21.15
2017-08-12T15:15:36.545Z,21.16
2017-08-12T15:18:04.932Z,21.23
2017-08-12T15:20:33.803Z,21.06
2017-08-12T15:23:01.741Z,20.95
2017-08-12T15:25:31.610Z,20.80
2017-08-12T15:28:01.041Z,20.96
2017-08-12T15:30:29.697Z,20.99
2017-08-12T15:32:57.885Z,20.86
2017-08-12T15:35:27.705Z,20.90
2017-08-12T15:37:55.680Z,20.77
2017-08-12T15:40:23.808Z,20.71
2017-08-12T15:42:52.012Z,20.78
2017-08-12T15:45:21.282Z,20.76
2017-08-12T15:47:51.109Z,20.88
2017-08-12T15:50:22.519Z,20.90
2017-08-12T15:52:53.819Z,21.18
2017-08-12T15:55:24.898Z,21.12
2017-08-12T15:57:54.094Z,21.15
2017-08-12T16:00:22.134Z,21.18
2017-08-12T16:02:50.098Z,21.22
2017-08-12T16:05:19.484Z,21.09
2017-08-12T16:07:49.381Z,20.93
2017-08-12T16:10:17.713Z,20.76
2017-08-12T16:12:45.694Z,20.63
2017-08-12T16:15:14.525Z,20.59
2017-08-12T16:17:42.846Z,20.53
2017-08-12T16:20:10.832Z,20.47
2017-08-12T16:22:38.875Z,20.55
2017-08-12T16:25:06.952Z,20.46
2017-08-12T16:27:36.761Z,20.51
2017-08-12T16:30:04.884Z,20.09
2017-08-12T16:32:32.836Z,19.92
2017-08-12T16:35:00.782Z,19.97
2017-08-12T16:37:28.757Z,20.01
2017-08-12T16:39:56.707Z,20.07
2017-08-12T16:42:24.732Z,20.04
2017-08-12T16:44:52.669Z,20.01
2017-08-12T16:47:20.625Z,20.05
2017-08-12T16:49:48.830Z,19.95
2017-08-12T16:52:16.841Z,19.98
2017-08-12T16:54:44.800Z,19.72
2017-08-12T16:57:13.139Z,19.76
2017-08-12T16:59:41.545Z,19.71
2017-08-12T17:02:09.486Z,19.54
2017-08-12T17:04:37.708Z,19.49
2017-08-12T17:07:05.721Z,19.42
2017-08-12T17:09:36.857Z,19.40
2017-08-12T17:12:05.031Z,19.28
2017-08-12T17:14:33.126Z,19.16
2017-08-12T17:17:01.264Z,19.06
2017-08-12T17:19:29.275Z,19.03
2017-08-12T17:21:57.370Z,19.07
2017-08-12T17:24:25.487Z,19.15
2017-08-12T17:26:55.318Z,19.04
2017-08-12T17:29:24.198Z,19.04
2017-08-12T17:31:53.974Z,18.90
2017-08-12T17:34:24.138Z,18.96
2017-08-12T17:36:52.598Z,18.95
2017-08-12T17:39:20.536Z,19.01
2017-08-12T17:41:48.744Z,19.05
2017-08-12T17:44:16.810Z,18.99
2017-08-12T17:46:44.964Z,19.08
2017-08-12T17:49:13.441Z,19.14
2017-08-12T17:51:42.383Z,19.03
2017-08-12T17:54:10.803Z,19.01
2017-08-12T17:56:38.779Z,18.92
2017-08-12T17:59:07.388Z,18.95
2017-08-12T18:01:35.701Z,18.95
2017-08-12T18:04:05.751Z,18.91
2017-08-12T18:06:34.504Z,18.82
2017-08-12T18:09:03.835Z,18.80
2017-08-12T18:11:39.381Z,18.76
2017-08-12T18:14:08.010Z,18.69
2017-08-12T18:16:37.346Z,18.69
2017-08-12T18:19:09.591Z,18.66
2017-08-12T18:21:40.776Z,18.72
2017-08-12T18:24:10.175Z,18.78
2017-08-12T18:26:39.995Z,18.83
2017-08-12T18:29:08.409Z,18.77
2017-08-12T18:31:40.286Z,18.86
2017-08-12T18:34:08.196Z,18.84
2017-08-12T18:36:36.182Z,18.90
2017-08-12T18:39:04.094Z,18.77
2017-08-12T18:41:32.390Z,18.84
2017-08-12T18:44:00.298Z,18.79
2017-08-12T18:46:28.198Z,18.81
2017-08-12T18:48:56.523Z,18.88
2017-08-12T18:51:24.585Z,18.81
2017-08-12T18:53:52.504Z,18.83
2017-08-12T18:56:20.866Z,18.74
2017-08-12T18:58:48.779Z,18.67
2017-08-12T19:01:17.084Z,18.61
2017-08-12T19:03:44.994Z,18.50
2017-08-12T19:06:12.916Z,18.36
2017-08-12T19:08:40.818Z,18.30
2017-08-12T19:11:08.723Z,18.09
2017-08-12T19:13:37.183Z,17.81
2017-08-12T19:16:05.095Z,17.58
2017-08-12T19:18:33.005Z,17.40
2017-08-12T19:21:00.910Z,17.16
2017-08-12T19:23:29.212Z,17.02
2017-08-12T19:25:57.132Z,16.96
2017-08-12T19:28:25.485Z,16.95
2017-08-12T19:30:53.393Z,16.92
2017-08-12T19:33:21.291Z,16.79
2017-08-12T19:35:49.201Z,16.76
2017-08-12T19:38:17.116Z,16.70
2017-08-12T19:40:45.672Z,16.67
2017-08-12T19:43:13.584Z,16.64
2017-08-12T19:45:41.497Z,16.64
2017-08-12T19:48:09.424Z,16.63
2017-08-12T19:50:37.332Z,16.72
2017-08-12T19:53:05.261Z,16.55
2017-08-12T19:55:33.158Z,16.54
2017-08-12T19:58:01.078Z,16.47
2017-08-12T20:00:29.376Z,16.47
2017-08-12T20:02:57.692Z,16.44
2017-08-12T20:05:25.591Z,16.46
2017-08-12T20:07:53.504Z,16.45
2017-08-12T20:10:21.419Z,16.45
2017-08-12T20:12:49.379Z,16.44
2017-08-12T20:15:17.290Z,16.36
2017-08-12T20:17:45.471Z,16.43
2017-08-12T20:20:14.528Z,16.46
2017-08-12T20:22:42.431Z,16.41
2017-08-12T20:25:10.719Z,16.43
2017-08-12T20:27:38.623Z,16.44
2017-08-12T20:30:06.535Z,16.42
2017-08-12T20:32:34.847Z,16.51
2017-08-12T20:35:02.751Z,16.56
2017-08-12T20:37:30.832Z,16.47
2017-08-12T20:39:58.730Z,16.50
2017-08-12T20:42:27.032Z,16.47
2017-08-12T20:44:54.952Z,16.40
2017-08-12T20:47:22.866Z,16.34
2017-08-12T20:49:50.941Z,16.34
2017-08-12T20:52:18.843Z,16.16
2017-08-12T20:54:46.742Z,16.18
2017-08-12T20:57:15.061Z,16.16
2017-08-12T20:59:42.958Z,16.19
2017-08-12T21:02:10.880Z,16.31
2017-08-12T21:04:38.783Z,16.31
2017-08-12T21:07:06.766Z,16.35
2017-08-12T21:09:34.679Z,16.34
2017-08-12T21:12:02.581Z,16.43
2017-08-12T21:14:30.508Z,16.41
2017-08-12T21:16:58.847Z,16.50
2017-08-12T21:19:26.752Z,16.45
2017-08-12T21:21:55.068Z,16.53
2017-08-12T21:24:22.972Z,16.58
2017-08-12T21:26:50.886Z,16.55
2017-08-12T21:29:18.790Z,16.65
2017-08-12T21:31:46.709Z,16.67
2017-08-12T21:34:15.017Z,16.62
2017-08-12T21:36:43.343Z,16.58
2017-08-12T21:39:11.248Z,16.62
2017-08-12T21:41:39.146Z,16.67
2017-08-12T21:44:07.059Z,16.51
2017-08-12T21:46:35.259Z,16.55
2017-08-12T21:49:03.170Z,16.57
2017-08-12T21:51:31.081Z,16.56
2017-08-12T21:53:59.526Z,16.59
2017-08-12T21:56:27.438Z,16.64
2017-08-12T21:58:55.349Z,16.69
2017-08-12T22:01:23.268Z,16.66
2017-08-12T22:03:51.587Z,16.65
2017-08-12T22:06:19.838Z,16.65
2017-08-12T22:08:47.752Z,16.69
2017-08-12T22:11:15.831Z,16.66
2017-08-12T22:13:43.734Z,16.70
2017-08-12T22:16:12.041Z,16.75
2017-08-12T22:18:40.063Z,16.76
2017-08-12T22:21:07.972Z,16.84
2017-08-12T22:23:35.890Z,16.76
2017-08-12T22:26:03.805Z,16.82
2017-08-12T22:28:31.725Z,16.78
2017-08-12T22:30:59.627Z,16.84
2017-08-12T22:33:28.282Z,16.92
2017-08-12T22:35:56.182Z,16.86
2017-08-12T22:38:24.096Z,16.91
2017-08-12T22:40:52.003Z,16.72
2017-08-12T22:43:19.907Z,16.61
2017-08-12T22:45:47.814Z,16.55
2017-08-12T22:48:15.705Z,16.41
2017-08-12T22:50:43.777Z,16.40
2017-08-12T22:53:11.678Z,16.34
2017-08-12T22:55:39.588Z,16.29
2017-08-12T22:58:07.492Z,16.23
2017-08-12T23:00:35.786Z,16.25
2017-08-12T23:03:04.094Z,16.13
2017-08-12T23:05:31.995Z,16.17
2017-08-12T23:07:59.912Z,16.08
2017-08-12T23:10:27.812Z,15.97
2017-08-12T23:12:55.742Z,16.02
2017-08-12T23:15:23.660Z,15.95
2017-08-12T23:17:51.758Z,15.91
2017-08-12T23:20:19.663Z,15.97
2017-08-12T23:22:47.572Z,15.95
2017-08-12T23:25:15.479Z,16.01
2017-08-12T23:27:43.779Z,16.01
2017-08-12T23:30:11.686Z,16.09
2017-08-12T23:32:39.604Z,16.06
2017-08-12T23:35:08.042Z,16.16
2017-08-12T23:37:35.952Z,16.05
2017-08-12T23:40:04.261Z,16.17
2017-08-12T23:42:32.166Z,16.22
2017-08-12T23:45:00.077Z,16.32
2017-08-12T23:47:27.983Z,16.34
2017-08-12T23:49:55.896Z,16.37
2017-08-12T23:52:24.216Z,16.45
2017-08-12T23:54:52.119Z,16.54
2017-08-12T23:57:20.040Z,16.57
2017-08-12T23:59:47.949Z,16.49
